Time;durP1;ratioP1;P1;durP2;ratioP2;P2;SDS_P1;SDS_P2;PMS_P1;PMS_P2;Temp;Humidity;BMP_temperature;BMP_pressure;BME280_temperature;BME280_humidity;BME280_pressure;Samples;Min_cycle;Max_cycle;Signal;HPM_P1;HPM_P2
2022/09/18 00:02:17;;;;;;;;;;;8.40;99.90;;;;;;5082334;28;19928;-76
2022/09/18 00:04:44;;;;;;;;;;;8.40;99.90;;;;;;5084880;28;20318;-75
2022/09/18 00:07:10;;;;;;;;;;;8.30;99.90;;;;;;5085376;28;19984;-76
2022/09/18 00:09:38;;;;;;;;;;;8.40;99.90;;;;;;5085069;28;19962;-76
2022/09/18 00:12:06;;;;;;;;;;;8.30;99.90;;;;;;5085222;28;19920;-76
2022/09/18 00:14:33;;;;;;;;;;;8.40;99.90;;;;;;5084663;28;19927;-76
2022/09/18 00:16:59;;;;;;;;;;;8.40;99.90;;;;;;5085220;28;19920;-76
2022/09/18 00:19:26;;;;;;;;;;;8.40;99.90;;;;;;5085086;28;19920;-75
2022/09/18 00:21:53;;;;;;;;;;;8.40;99.90;;;;;;5085283;28;19928;-77
2022/09/18 00:24:21;;;;;;;;;;;8.40;99.90;;;;;;5085524;28;19980;-76
2022/09/18 00:26:48;;;;;;;;;;;8.40;99.90;;;;;;5084402;28;20204;-76
2022/09/18 00:29:16;;;;;;;;;;;8.40;99.90;;;;;;5085027;28;19920;-75
2022/09/18 00:31:43;;;;;;;;;;;8.40;99.90;;;;;;5085166;28;19921;-76
2022/09/18 00:34:13;;;;;;;;;;;8.40;99.90;;;;;;5085524;28;19927;-76
2022/09/18 00:36:40;;;;;;;;;;;8.40;99.90;;;;;;5084488;28;19980;-77
2022/09/18 00:39:07;;;;;;;;;;;8.40;99.90;;;;;;5085311;28;19928;-77
2022/09/18 00:41:35;;;;;;;;;;;8.30;99.90;;;;;;5085228;28;19927;-77
2022/09/18 00:44:35;;;;;;;;;;;8.40;99.90;;;;;;5085387;28;19920;-76
2022/09/18 00:47:13;;;;;;;;;;;8.40;99.90;;;;;;5023207;28;19927;-76
2022/09/18 00:49:42;;;;;;;;;;;8.30;99.90;;;;;;5023742;28;19928;-76
2022/09/18 00:52:09;;;;;;;;;;;8.40;99.90;;;;;;5056604;28;19932;-77
2022/09/18 00:54:38;;;;;;;;;;;8.30;99.90;;;;;;5083079;28;19927;-76
2022/09/18 00:57:07;;;;;;;;;;;8.40;99.90;;;;;;5085260;28;20111;-76
2022/09/18 00:59:34;;;;;;;;;;;8.40;99.90;;;;;;5082025;28;19935;-76
2022/09/18 01:02:01;;;;;;;;;;;8.40;99.90;;;;;;5065209;28;19921;-77
2022/09/18 01:04:29;;;;;;;;;;;8.40;99.90;;;;;;5064851;28;19921;-76
2022/09/18 01:07:02;;;;;;;;;;;8.40;99.90;;;;;;5067090;28;19921;-75
2022/09/18 01:09:33;;;;;;;;;;;8.40;99.90;;;;;;5084927;28;19951;-77
2022/09/18 01:12:02;;;;;;;;;;;8.50;99.90;;;;;;5084206;28;19921;-77
2022/09/18 01:14:32;;;;;;;;;;;8.50;99.90;;;;;;5084406;28;19955;-76
2022/09/18 01:17:04;;;;;;;;;;;8.50;99.90;;;;;;5083694;28;19927;-76
2022/09/18 01:19:37;;;;;;;;;;;8.50;99.90;;;;;;5084853;28;19984;-76
2022/09/18 01:22:11;;;;;;;;;;;8.50;99.90;;;;;;5085571;28;19920;-76
2022/09/18 01:24:50;;;;;;;;;;;8.50;99.90;;;;;;5084730;28;19963;-77
2022/09/18 01:27:21;;;;;;;;;;;8.50;99.90;;;;;;5083968;28;19934;-77
2022/09/18 01:29:54;;;;;;;;;;;8.50;99.90;;;;;;5080250;28;19984;-76
2022/09/18 01:32:22;;;;;;;;;;;8.60;99.90;;;;;;5081674;28;19924;-77
2022/09/18 01:34:55;;;;;;;;;;;8.60;99.90;;;;;;5084042;28;20250;-76
2022/09/18 01:37:25;;;;;;;;;;;8.60;99.90;;;;;;5084901;28;19966;-76
2022/09/18 01:39:53;;;;;;;;;;;8.50;99.90;;;;;;5084450;28;19920;-77
2022/09/18 01:42:21;;;;;;;;;;;8.60;99.90;;;;;;5083553;28;19927;-75
2022/09/18 01:44:49;;;;;;;;;;;8.50;99.90;;;;;;5082772;28;19983;-76
2022/09/18 01:47:17;;;;;;;;;;;8.50;99.90;;;;;;5083606;28;19928;-76
2022/09/18 01:49:45;;;;;;;;;;;8.60;99.90;;;;;;5076730;28;19920;-76
2022/09/18 01:52:16;;;;;;;;;;;8.60;99.90;;;;;;5082996;28;19987;-76
2022/09/18 01:54:44;;;;;;;;;;;8.60;99.90;;;;;;5083337;28;19920;-75
2022/09/18 01:57:13;;;;;;;;;;;8.60;99.90;;;;;;5082757;28;19926;-75
2022/09/18 01:59:42;;;;;;;;;;;8.60;99.90;;;;;;5083061;28;19927;-75
2022/09/18 02:02:12;;;;;;;;;;;8.60;99.90;;;;;;5083214;28;20208;-75
2022/09/18 02:04:42;;;;;;;;;;;8.60;99.90;;;;;;5082301;28;19951;-76
2022/09/18 02:07:13;;;;;;;;;;;8.60;99.90;;;;;;5082621;28;19920;-75
2022/09/18 02:09:39;;;;;;;;;;;8.60;99.90;;;;;;5083393;28;19955;-76
2022/09/18 02:12:07;;;;;;;;;;;8.60;99.90;;;;;;5082689;28;19987;-76
2022/09/18 02:14:35;;;;;;;;;;;8.60;99.90;;;;;;5082098;28;19940;-75
2022/09/18 02:17:05;;;;;;;;;;;8.60;99.90;;;;;;5082560;28;19921;-76
2022/09/18 02:19:35;;;;;;;;;;;8.60;99.90;;;;;;5077488;28;19952;-75
2022/09/18 02:22:03;;;;;;;;;;;8.60;99.90;;;;;;5083636;28;19927;-76
2022/09/18 02:24:32;;;;;;;;;;;8.60;99.90;;;;;;5083071;28;19921;-75
2022/09/18 02:27:00;;;;;;;;;;;8.60;99.90;;;;;;5083597;28;19983;-75
2022/09/18 02:29:30;;;;;;;;;;;8.60;99.90;;;;;;5083831;28;19927;-75
2022/09/18 02:31:58;;;;;;;;;;;8.60;99.90;;;;;;5083455;28;19921;-74
2022/09/18 02:34:25;;;;;;;;;;;8.60;99.90;;;;;;5083731;28;20000;-75
2022/09/18 02:37:02;;;;;;;;;;;8.60;99.90;;;;;;5082899;28;19921;-75
2022/09/18 02:39:40;;;;;;;;;;;8.60;99.90;;;;;;5083673;28;19955;-74
2022/09/18 02:42:15;;;;;;;;;;;8.60;99.90;;;;;;5079295;28;19924;-75
2022/09/18 02:44:47;;;;;;;;;;;8.60;99.90;;;;;;5086856;28;20208;-75
2022/09/18 02:47:18;;;;;;;;;;;8.60;99.90;;;;;;5087808;28;20013;-75
2022/09/18 02:49:48;;;;;;;;;;;8.60;99.90;;;;;;5087515;28;19920;-75
2022/09/18 02:52:18;;;;;;;;;;;8.60;99.90;;;;;;5087630;28;19926;-75
2022/09/18 02:54:48;;;;;;;;;;;8.60;99.90;;;;;;5086771;28;19920;-74
2022/09/18 02:57:16;;;;;;;;;;;8.60;99.90;;;;;;5087721;28;19920;-75
2022/09/18 02:59:45;;;;;;;;;;;8.60;99.90;;;;;;5087284;28;19927;-75
2022/09/18 03:02:11;;;;;;;;;;;8.60;99.90;;;;;;5087451;28;19921;-75
2022/09/18 03:04:38;;;;;;;;;;;8.60;99.90;;;;;;5086550;28;19921;-75
2022/09/18 03:07:05;;;;;;;;;;;8.70;99.90;;;;;;5086877;28;20234;-74
2022/09/18 03:09:33;;;;;;;;;;;8.60;99.90;;;;;;5087220;28;19920;-74
2022/09/18 03:12:02;;;;;;;;;;;8.60;99.90;;;;;;5087005;28;19920;-75
2022/09/18 03:14:28;;;;;;;;;;;8.60;99.90;;;;;;5072987;28;19984;-74
2022/09/18 03:16:55;;;;;;;;;;;8.70;99.90;;;;;;5066819;28;19952;-74
2022/09/18 03:19:21;;;;;;;;;;;8.70;99.90;;;;;;5064939;28;19927;-74
2022/09/18 03:21:49;;;;;;;;;;;8.70;99.90;;;;;;5086482;28;19927;-74
2022/09/18 03:24:16;;;;;;;;;;;8.70;99.90;;;;;;5086905;28;19921;-75
2022/09/18 03:26:43;;;;;;;;;;;8.70;99.90;;;;;;5085969;28;20096;-75
2022/09/18 03:29:11;;;;;;;;;;;8.70;99.90;;;;;;5086946;28;19955;-75
2022/09/18 03:31:38;;;;;;;;;;;8.70;99.90;;;;;;5086759;28;19984;-75
2022/09/18 03:34:04;;;;;;;;;;;8.80;99.90;;;;;;5086836;28;19956;-75
2022/09/18 03:36:31;;;;;;;;;;;8.70;99.90;;;;;;5085791;28;20123;-75
2022/09/18 03:38:58;;;;;;;;;;;8.70;99.90;;;;;;5086838;28;19927;-75
2022/09/18 03:41:24;;;;;;;;;;;8.80;99.90;;;;;;5086116;28;19926;-75
2022/09/18 03:43:51;;;;;;;;;;;8.80;99.90;;;;;;5086308;28;19979;-75
2022/09/18 03:46:22;;;;;;;;;;;8.80;99.90;;;;;;5071521;28;19920;-75
2022/09/18 03:48:49;;;;;;;;;;;8.80;99.90;;;;;;5077434;28;19983;-75
2022/09/18 03:51:16;;;;;;;;;;;8.80;99.90;;;;;;5086424;28;19979;-75
2022/09/18 03:53:44;;;;;;;;;;;8.90;99.90;;;;;;5086052;28;19956;-75
2022/09/18 03:56:10;;;;;;;;;;;8.90;99.90;;;;;;5085389;28;19962;-75
2022/09/18 03:58:37;;;;;;;;;;;8.80;99.90;;;;;;5086132;28;19959;-75
2022/09/18 04:01:04;;;;;;;;;;;8.80;99.90;;;;;;5085906;28;19962;-75
2022/09/18 04:03:32;;;;;;;;;;;8.80;99.90;;;;;;5086166;28;19927;-75
2022/09/18 04:05:59;;;;;;;;;;;8.80;99.90;;;;;;5085416;28;19927;-75
2022/09/18 04:08:25;;;;;;;;;;;8.80;99.90;;;;;;5085809;28;19927;-75
2022/09/18 04:10:52;;;;;;;;;;;8.80;99.90;;;;;;5085967;28;19952;-75
2022/09/18 04:13:19;;;;;;;;;;;8.80;99.90;;;;;;5085685;28;20194;-74
2022/09/18 04:15:49;;;;;;;;;;;8.80;99.90;;;;;;5085308;28;19928;-75
2022/09/18 04:18:15;;;;;;;;;;;8.80;99.90;;;;;;5085946;28;19927;-74
2022/09/18 04:21:04;;;;;;;;;;;8.80;99.90;;;;;;5083038;28;19985;-75
2022/09/18 04:23:32;;;;;;;;;;;8.80;99.90;;;;;;5085792;28;19987;-75
2022/09/18 04:25:59;;;;;;;;;;;8.80;99.90;;;;;;5085117;28;19920;-74
2022/09/18 04:28:25;;;;;;;;;;;8.90;99.90;;;;;;5085548;28;19956;-74
2022/09/18 04:30:52;;;;;;;;;;;8.90;99.90;;;;;;5085630;28;19991;-75
2022/09/18 04:33:18;;;;;;;;;;;8.80;99.90;;;;;;5084590;28;19929;-74
2022/09/18 04:35:45;;;;;;;;;;;8.80;99.90;;;;;;5083939;28;20050;-74
2022/09/18 04:38:11;;;;;;;;;;;8.90;99.90;;;;;;5084897;28;19988;-75
2022/09/18 04:40:39;;;;;;;;;;;8.90;99.90;;;;;;5083249;28;20003;-74
2022/09/18 04:43:09;;;;;;;;;;;8.90;99.90;;;;;;5083456;28;20116;-74
2022/09/18 04:45:35;;;;;;;;;;;8.90;99.90;;;;;;5083098;28;19928;-74
2022/09/18 04:48:02;;;;;;;;;;;8.90;99.90;;;;;;5079995;28;19927;-74
2022/09/18 04:50:29;;;;;;;;;;;8.90;99.90;;;;;;5083260;28;19926;-74
2022/09/18 04:52:55;;;;;;;;;;;8.90;99.90;;;;;;5084575;28;19951;-74
2022/09/18 04:55:22;;;;;;;;;;;8.80;99.90;;;;;;5083261;28;19920;-74
2022/09/18 04:57:50;;;;;;;;;;;8.90;99.90;;;;;;5084196;28;19920;-74
2022/09/18 05:00:17;;;;;;;;;;;8.90;99.90;;;;;;5084567;28;19927;-73
2022/09/18 05:02:43;;;;;;;;;;;8.90;99.90;;;;;;5083673;28;19943;-72
2022/09/18 05:05:10;;;;;;;;;;;8.90;99.90;;;;;;5083105;28;19983;-74
2022/09/18 05:07:37;;;;;;;;;;;8.90;99.90;;;;;;5083493;28;19979;-75
2022/09/18 05:10:04;;;;;;;;;;;8.90;99.90;;;;;;5082983;28;19952;-74
2022/09/18 05:12:31;;;;;;;;;;;8.90;99.90;;;;;;5083425;28;19940;-74
2022/09/18 05:14:59;;;;;;;;;;;8.90;99.90;;;;;;5082474;28;19984;-75
2022/09/18 05:17:25;;;;;;;;;;;8.90;99.90;;;;;;5083337;28;19988;-74
2022/09/18 05:19:52;;;;;;;;;;;8.90;99.90;;;;;;5081615;28;19942;-74
2022/09/18 05:22:19;;;;;;;;;;;8.90;99.90;;;;;;5083918;28;19995;-74
2022/09/18 05:24:45;;;;;;;;;;;8.90;99.90;;;;;;5082551;28;19927;-74
2022/09/18 05:27:12;;;;;;;;;;;8.90;99.90;;;;;;5083022;28;19995;-75
2022/09/18 05:29:38;;;;;;;;;;;8.90;99.90;;;;;;5083148;28;20092;-75
2022/09/18 05:32:06;;;;;;;;;;;8.90;99.90;;;;;;5083572;28;20265;-74
2022/09/18 05:34:33;;;;;;;;;;;8.90;99.90;;;;;;5081920;28;19988;-75
2022/09/18 05:37:00;;;;;;;;;;;8.90;99.90;;;;;;5082474;28;19921;-75
2022/09/18 05:39:26;;;;;;;;;;;8.90;99.90;;;;;;5082351;28;19927;-74
2022/09/18 05:41:53;;;;;;;;;;;8.90;99.90;;;;;;5082886;28;20141;-75
2022/09/18 05:44:20;;;;;;;;;;;8.90;99.90;;;;;;5083909;28;19987;-75
2022/09/18 05:46:46;;;;;;;;;;;8.90;99.90;;;;;;5083242;28;20154;-75
2022/09/18 05:49:15;;;;;;;;;;;8.90;99.90;;;;;;5083005;28;19927;-75
2022/09/18 05:51:41;;;;;;;;;;;8.90;99.90;;;;;;5082225;28;19920;-75
2022/09/18 05:54:08;;;;;;;;;;;8.90;99.90;;;;;;5083537;28;19921;-75
2022/09/18 05:56:34;;;;;;;;;;;8.90;99.90;;;;;;5083229;28;19921;-75
2022/09/18 05:59:01;;;;;;;;;;;8.90;99.90;;;;;;5084116;28;19927;-75
2022/09/18 06:01:29;;;;;;;;;;;8.90;99.90;;;;;;5083836;28;20275;-75
2022/09/18 06:03:55;;;;;;;;;;;8.90;99.90;;;;;;5083678;28;20167;-75
2022/09/18 06:06:23;;;;;;;;;;;8.90;99.90;;;;;;5082678;28;19921;-75
2022/09/18 06:08:50;;;;;;;;;;;8.90;99.90;;;;;;5083297;28;20131;-74
2022/09/18 06:11:16;;;;;;;;;;;8.90;99.90;;;;;;5082852;28;19988;-74
2022/09/18 06:13:43;;;;;;;;;;;8.90;99.90;;;;;;5083193;28;19926;-74
2022/09/18 06:16:10;;;;;;;;;;;9.00;99.90;;;;;;5082594;28;19921;-75
2022/09/18 06:18:36;;;;;;;;;;;8.90;99.90;;;;;;5082672;28;19988;-74
2022/09/18 06:21:03;;;;;;;;;;;8.90;99.90;;;;;;5083010;28;20181;-74
2022/09/18 06:23:31;;;;;;;;;;;8.90;99.90;;;;;;5083253;28;20223;-75
2022/09/18 06:25:58;;;;;;;;;;;8.80;99.90;;;;;;5082206;28;19920;-76
2022/09/18 06:28:25;;;;;;;;;;;8.90;99.90;;;;;;5083148;28;19927;-75
2022/09/18 06:30:58;;;;;;;;;;;8.90;99.90;;;;;;5081009;28;19929;-75
2022/09/18 06:33:25;;;;;;;;;;;8.90;99.90;;;;;;5083784;28;19974;-75
2022/09/18 06:35:51;;;;;;;;;;;8.90;99.90;;;;;;5082964;28;19920;-75
2022/09/18 06:38:18;;;;;;;;;;;8.90;99.90;;;;;;5083810;28;19974;-75
2022/09/18 06:41:00;;;;;;;;;;;8.90;99.90;;;;;;5080852;28;19920;-75
2022/09/18 06:43:27;;;;;;;;;;;8.90;99.90;;;;;;5083148;28;19984;-74
2022/09/18 06:45:54;;;;;;;;;;;8.90;99.90;;;;;;5082932;28;19983;-75
2022/09/18 06:48:20;;;;;;;;;;;8.90;99.90;;;;;;5083546;28;19983;-75
2022/09/18 06:50:50;;;;;;;;;;;9.00;99.90;;;;;;5083239;28;19925;-75
2022/09/18 06:53:17;;;;;;;;;;;9.00;99.90;;;;;;5083480;28;19920;-75
2022/09/18 06:55:44;;;;;;;;;;;8.90;99.90;;;;;;5082622;28;19921;-74
2022/09/18 06:58:11;;;;;;;;;;;8.90;99.90;;;;;;5083711;28;19962;-74
2022/09/18 07:00:38;;;;;;;;;;;8.90;99.90;;;;;;5083535;28;19927;-72
2022/09/18 07:03:05;;;;;;;;;;;9.00;99.90;;;;;;5083313;28;19991;-75
2022/09/18 07:05:32;;;;;;;;;;;9.00;99.90;;;;;;5082673;28;19920;-75
2022/09/18 07:07:59;;;;;;;;;;;9.00;99.90;;;;;;5083566;28;19927;-75
2022/09/18 07:10:26;;;;;;;;;;;9.00;99.90;;;;;;5083365;28;19920;-76
2022/09/18 07:12:55;;;;;;;;;;;9.00;99.90;;;;;;5083062;28;19920;-72
2022/09/18 07:15:23;;;;;;;;;;;9.00;99.90;;;;;;5082555;28;19936;-75
2022/09/18 07:17:51;;;;;;;;;;;9.00;99.90;;;;;;5083089;28;19921;-71
2022/09/18 07:20:18;;;;;;;;;;;9.00;99.90;;;;;;5081468;28;19927;-71
2022/09/18 07:22:51;;;;;;;;;;;9.00;99.90;;;;;;5082575;28;19963;-73
2022/09/18 07:25:18;;;;;;;;;;;9.00;99.90;;;;;;5081822;28;20204;-74
2022/09/18 07:28:05;;;;;;;;;;;9.10;99.90;;;;;;5072417;28;19980;-70
2022/09/18 07:30:50;;;;;;;;;;;9.10;99.90;;;;;;5080613;28;19920;-73
2022/09/18 07:33:19;;;;;;;;;;;9.10;99.90;;;;;;5086283;28;19943;-73
2022/09/18 07:35:46;;;;;;;;;;;9.10;99.90;;;;;;5085521;28;20086;-73
2022/09/18 07:38:19;;;;;;;;;;;9.10;99.90;;;;;;5083087;28;19920;-72
2022/09/18 07:40:45;;;;;;;;;;;9.10;99.90;;;;;;5086092;28;19928;-73
2022/09/18 07:43:12;;;;;;;;;;;9.10;99.90;;;;;;5086061;28;19929;-70
2022/09/18 07:46:11;;;;;;;;;;;9.20;99.90;;;;;;5067994;28;19932;-74
2022/09/18 07:48:39;;;;;;;;;;;9.20;99.90;;;;;;5066254;28;19987;-73
2022/09/18 07:51:05;;;;;;;;;;;9.20;99.90;;;;;;5083614;28;19927;-73
2022/09/18 07:53:32;;;;;;;;;;;9.20;99.90;;;;;;5085749;28;20208;-73
2022/09/18 07:55:59;;;;;;;;;;;9.20;99.90;;;;;;5085117;28;20326;-73
2022/09/18 07:58:25;;;;;;;;;;;9.20;99.90;;;;;;5085616;28;19991;-73
2022/09/18 08:00:52;;;;;;;;;;;9.20;99.90;;;;;;5085861;28;19920;-73
2022/09/18 08:03:19;;;;;;;;;;;9.20;99.90;;;;;;5085116;28;19927;-73
2022/09/18 08:05:47;;;;;;;;;;;9.20;99.90;;;;;;5085150;28;20167;-73
2022/09/18 08:08:14;;;;;;;;;;;9.30;99.90;;;;;;5083634;28;19920;-73
2022/09/18 08:10:42;;;;;;;;;;;9.30;99.90;;;;;;5085859;28;19921;-73
2022/09/18 08:13:09;;;;;;;;;;;9.30;99.90;;;;;;5085045;28;19959;-71
2022/09/18 08:15:37;;;;;;;;;;;9.40;99.90;;;;;;5084695;28;19920;-71
2022/09/18 08:18:03;;;;;;;;;;;9.40;99.90;;;;;;5085048;28;19928;-72
2022/09/18 08:20:30;;;;;;;;;;;9.40;99.90;;;;;;5086824;28;19920;-72
2022/09/18 08:22:58;;;;;;;;;;;9.50;99.90;;;;;;5085602;28;19987;-71
2022/09/18 08:25:26;;;;;;;;;;;9.50;99.90;;;;;;5085335;28;19943;-71
2022/09/18 08:27:52;;;;;;;;;;;9.50;99.90;;;;;;5085803;28;19921;-70
2022/09/18 08:30:19;;;;;;;;;;;9.60;99.90;;;;;;5085743;28;20161;-70
2022/09/18 08:32:48;;;;;;;;;;;9.60;99.90;;;;;;5084593;28;19927;-71
2022/09/18 08:35:14;;;;;;;;;;;9.60;99.90;;;;;;5084684;28;19920;-70
2022/09/18 08:37:46;;;;;;;;;;;9.70;99.90;;;;;;5085440;28;19920;-71
2022/09/18 08:40:16;;;;;;;;;;;9.70;99.90;;;;;;5084860;28;19920;-71
2022/09/18 08:42:47;;;;;;;;;;;9.70;99.90;;;;;;5084578;28;19920;-71
2022/09/18 08:45:26;;;;;;;;;;;9.80;99.90;;;;;;5084564;28;19987;-72
2022/09/18 08:47:54;;;;;;;;;;;9.90;99.90;;;;;;5085033;28;19921;-71
2022/09/18 08:50:23;;;;;;;;;;;9.90;99.90;;;;;;5085318;28;19920;-72
2022/09/18 08:52:50;;;;;;;;;;;9.90;99.90;;;;;;5085101;28;19921;-71
2022/09/18 08:55:23;;;;;;;;;;;9.90;99.90;;;;;;5084274;28;19928;-71
2022/09/18 08:57:53;;;;;;;;;;;10.00;99.90;;;;;;5085140;28;20059;-71
2022/09/18 09:00:22;;;;;;;;;;;9.90;99.90;;;;;;5085059;28;19983;-72
2022/09/18 09:02:49;;;;;;;;;;;9.90;99.90;;;;;;5084883;28;19991;-72
2022/09/18 09:05:18;;;;;;;;;;;9.90;99.90;;;;;;5083742;28;19991;-72
2022/09/18 09:08:00;;;;;;;;;;;10.00;99.90;;;;;;5082857;28;19990;-72
2022/09/18 09:10:35;;;;;;;;;;;10.00;99.90;;;;;;5084981;28;19979;-70
2022/09/18 09:13:11;;;;;;;;;;;10.10;99.90;;;;;;5084430;28;20115;-72
2022/09/18 09:15:41;;;;;;;;;;;10.10;99.90;;;;;;5083697;28;19924;-72
2022/09/18 09:18:15;;;;;;;;;;;10.10;99.90;;;;;;5084759;28;19920;-72
2022/09/18 09:20:45;;;;;;;;;;;10.20;99.90;;;;;;5084528;28;19924;-74
2022/09/18 09:23:17;;;;;;;;;;;10.30;99.90;;;;;;5084413;28;20257;-73
2022/09/18 09:25:51;;;;;;;;;;;10.30;99.90;;;;;;5084061;28;19920;-73
2022/09/18 09:28:19;;;;;;;;;;;10.40;99.90;;;;;;5084744;28;19984;-74
2022/09/18 09:30:48;;;;;;;;;;;10.40;99.90;;;;;;5084674;28;19920;-73
2022/09/18 09:33:18;;;;;;;;;;;10.50;99.90;;;;;;5084144;28;20254;-73
2022/09/18 09:35:46;;;;;;;;;;;10.50;99.90;;;;;;5083680;28;19927;-73
2022/09/18 09:38:28;;;;;;;;;;;10.60;99.90;;;;;;5084690;28;19986;-73
2022/09/18 09:40:57;;;;;;;;;;;10.60;99.90;;;;;;5084560;28;19920;-73
2022/09/18 09:43:27;;;;;;;;;;;10.60;99.90;;;;;;5083808;28;20447;-74
2022/09/18 09:45:55;;;;;;;;;;;10.60;99.90;;;;;;5083720;28;19920;-74
2022/09/18 09:48:24;;;;;;;;;;;10.60;99.90;;;;;;5084434;28;19921;-74
2022/09/18 09:50:55;;;;;;;;;;;10.50;99.90;;;;;;5083981;28;19921;-73
2022/09/18 09:53:24;;;;;;;;;;;10.50;99.90;;;;;;5083447;28;19921;-72
2022/09/18 09:55:54;;;;;;;;;;;10.50;99.90;;;;;;5083651;28;19927;-72
2022/09/18 09:58:28;;;;;;;;;;;10.60;99.90;;;;;;5083966;28;19943;-73
2022/09/18 10:00:59;;;;;;;;;;;10.50;99.90;;;;;;5084234;28;19983;-74
2022/09/18 10:03:31;;;;;;;;;;;10.50;99.90;;;;;;5083378;28;20124;-73
2022/09/18 10:06:00;;;;;;;;;;;10.50;99.90;;;;;;5083547;28;20154;-73
2022/09/18 10:08:30;;;;;;;;;;;10.40;99.90;;;;;;5083901;28;19928;-73
2022/09/18 10:10:58;;;;;;;;;;;10.40;99.90;;;;;;5084283;28;19964;-72
2022/09/18 10:13:32;;;;;;;;;;;10.40;99.90;;;;;;5081277;28;20293;-73
2022/09/18 10:16:01;;;;;;;;;;;10.40;99.90;;;;;;5083470;28;19975;-73
2022/09/18 10:18:30;;;;;;;;;;;10.40;99.90;;;;;;5084131;28;19924;-73
2022/09/18 10:20:58;;;;;;;;;;;10.30;99.90;;;;;;5084007;28;19920;-73
2022/09/18 10:23:29;;;;;;;;;;;10.30;99.90;;;;;;5083795;28;19935;-75
2022/09/18 10:25:58;;;;;;;;;;;10.30;99.90;;;;;;5062608;28;19920;-73
2022/09/18 10:28:28;;;;;;;;;;;10.30;99.90;;;;;;5063773;28;19920;-73
2022/09/18 10:30:57;;;;;;;;;;;10.30;99.90;;;;;;5063844;28;19921;-73
2022/09/18 10:33:34;;;;;;;;;;;10.30;99.90;;;;;;5063452;28;19968;-73
2022/09/18 10:36:16;;;;;;;;;;;10.40;99.90;;;;;;5060764;28;19928;-73
2022/09/18 10:38:43;;;;;;;;;;;10.40;99.90;;;;;;5063904;28;19921;-74
2022/09/18 10:41:18;;;;;;;;;;;10.40;99.90;;;;;;5083738;28;20179;-74
2022/09/18 10:43:53;;;;;;;;;;;10.50;99.90;;;;;;5083307;28;19979;-73
2022/09/18 10:46:24;;;;;;;;;;;10.60;99.90;;;;;;5083066;28;19927;-72
2022/09/18 10:48:51;;;;;;;;;;;10.60;99.90;;;;;;5083047;28;20161;-73
2022/09/18 10:51:19;;;;;;;;;;;10.50;99.90;;;;;;5081061;28;19987;-72
2022/09/18 10:53:59;;;;;;;;;;;10.60;99.90;;;;;;5082965;28;20226;-72
2022/09/18 10:56:26;;;;;;;;;;;10.60;99.90;;;;;;5082622;28;20216;-71
2022/09/18 10:58:53;;;;;;;;;;;10.70;99.90;;;;;;5083587;28;19958;-72
2022/09/18 11:01:19;;;;;;;;;;;10.70;99.90;;;;;;5083115;28;19943;-72
2022/09/18 11:03:48;;;;;;;;;;;10.70;99.90;;;;;;5084064;28;19943;-73
2022/09/18 11:06:16;;;;;;;;;;;10.70;99.90;;;;;;5085754;28;19983;-73
2022/09/18 11:08:45;;;;;;;;;;;10.70;99.90;;;;;;5086817;28;19958;-74
2022/09/18 11:11:13;;;;;;;;;;;10.70;99.90;;;;;;5086766;28;19921;-74
2022/09/18 11:13:43;;;;;;;;;;;10.70;99.90;;;;;;5086328;28;19928;-73
2022/09/18 11:16:11;;;;;;;;;;;10.80;99.90;;;;;;5086475;28;19956;-74
2022/09/18 11:18:37;;;;;;;;;;;10.90;99.90;;;;;;5087132;28;19921;-74
2022/09/18 11:21:06;;;;;;;;;;;10.90;99.90;;;;;;5086786;28;19921;-74
2022/09/18 11:23:34;;;;;;;;;;;11.10;99.90;;;;;;5086744;28;19974;-73
2022/09/18 11:26:11;;;;;;;;;;;11.10;99.90;;;;;;5084546;28;20112;-73
2022/09/18 11:28:38;;;;;;;;;;;11.10;99.90;;;;;;5086770;28;20226;-73
2022/09/18 11:31:07;;;;;;;;;;;11.10;99.90;;;;;;5086558;28;20006;-73
2022/09/18 11:33:36;;;;;;;;;;;11.20;99.90;;;;;;5086852;28;19927;-74
2022/09/18 11:36:04;;;;;;;;;;;11.20;99.90;;;;;;5086187;28;19955;-73
2022/09/18 11:38:33;;;;;;;;;;;11.20;99.90;;;;;;5086849;28;19920;-74
2022/09/18 11:41:00;;;;;;;;;;;11.30;99.90;;;;;;5086761;28;20111;-74
2022/09/18 11:43:28;;;;;;;;;;;11.20;99.90;;;;;;5085731;28;19956;-74
2022/09/18 11:46:00;;;;;;;;;;;11.20;99.90;;;;;;5085661;28;19921;-74
2022/09/18 11:48:30;;;;;;;;;;;11.20;99.90;;;;;;5086803;28;20116;-74
2022/09/18 11:50:57;;;;;;;;;;;11.20;99.90;;;;;;5086639;28;19927;-73
2022/09/18 11:53:25;;;;;;;;;;;11.30;99.90;;;;;;5086447;28;19956;-73
2022/09/18 11:55:57;;;;;;;;;;;11.40;99.90;;;;;;5085773;28;19920;-73
2022/09/18 11:58:26;;;;;;;;;;;11.40;99.90;;;;;;5076320;28;19989;-74
2022/09/18 12:01:09;;;;;;;;;;;11.40;99.90;;;;;;5073952;28;19952;-75
2022/09/18 12:03:39;;;;;;;;;;;11.50;99.90;;;;;;5085903;28;19935;-71
2022/09/18 12:06:06;;;;;;;;;;;11.50;99.90;;;;;;5085079;28;19920;-74
2022/09/18 12:08:41;;;;;;;;;;;11.50;99.90;;;;;;5086235;28;19993;-72
2022/09/18 12:11:14;;;;;;;;;;;11.50;99.90;;;;;;5085881;28;20259;-74
2022/09/18 12:13:47;;;;;;;;;;;11.50;99.90;;;;;;5073356;28;19966;-73
2022/09/18 12:16:17;;;;;;;;;;;11.40;99.90;;;;;;5084808;28;20004;-73
2022/09/18 12:18:51;;;;;;;;;;;11.40;99.90;;;;;;5084918;28;20002;-73
2022/09/18 12:21:20;;;;;;;;;;;11.40;99.90;;;;;;5085480;28;19926;-73
2022/09/18 12:23:47;;;;;;;;;;;11.40;99.90;;;;;;5083425;28;20222;-74
2022/09/18 12:26:26;;;;;;;;;;;11.40;99.90;;;;;;5083369;28;19927;-74
2022/09/18 12:29:03;;;;;;;;;;;11.50;99.90;;;;;;5086103;28;19927;-74
2022/09/18 12:31:32;;;;;;;;;;;11.60;99.90;;;;;;5086006;28;19988;-73
2022/09/18 12:34:02;;;;;;;;;;;11.70;99.90;;;;;;5085842;28;20115;-74
2022/09/18 12:36:46;;;;;;;;;;;11.70;99.90;;;;;;5085236;28;19920;-73
2022/09/18 12:39:20;;;;;;;;;;;11.80;99.90;;;;;;5074652;28;20138;-72
2022/09/18 12:41:53;;;;;;;;;;;11.80;99.90;;;;;;5077801;28;19927;-72
2022/09/18 12:44:43;;;;;;;;;;;11.80;99.90;;;;;;5085775;28;19926;-72
2022/09/18 12:47:17;;;;;;;;;;;11.70;99.90;;;;;;5070117;28;19920;-73
2022/09/18 12:50:06;;;;;;;;;;;11.70;99.90;;;;;;5078466;28;19959;-73
2022/09/18 12:52:39;;;;;;;;;;;11.60;99.90;;;;;;5065532;28;19983;-73
2022/09/18 12:55:21;;;;;;;;;;;11.60;99.90;;;;;;5062223;28;19928;-72
2022/09/18 12:57:55;;;;;;;;;;;11.60;99.90;;;;;;5085176;28;19920;-72
2022/09/18 13:00:22;;;;;;;;;;;11.70;99.90;;;;;;5084320;28;20233;-71
2022/09/18 13:02:52;;;;;;;;;;;11.80;99.90;;;;;;5084767;28;19920;-73
2022/09/18 13:05:22;;;;;;;;;;;11.80;99.90;;;;;;5084449;28;19991;-74
2022/09/18 13:07:52;;;;;;;;;;;11.90;99.90;;;;;;5085150;28;19983;-73
2022/09/18 13:10:21;;;;;;;;;;;12.00;99.90;;;;;;5085041;28;19983;-74
2022/09/18 13:12:52;;;;;;;;;;;12.00;99.90;;;;;;5082462;28;20400;-75
2022/09/18 13:15:22;;;;;;;;;;;12.00;99.90;;;;;;5064306;28;19984;-73
2022/09/18 13:17:50;;;;;;;;;;;12.00;99.90;;;;;;5064805;28;19988;-73
2022/09/18 13:20:20;;;;;;;;;;;12.00;99.90;;;;;;5073142;28;19983;-73
2022/09/18 13:22:47;;;;;;;;;;;12.00;99.90;;;;;;5084610;28;20111;-73
2022/09/18 13:25:21;;;;;;;;;;;11.90;99.90;;;;;;5081484;28;19928;-73
2022/09/18 13:27:49;;;;;;;;;;;11.80;99.90;;;;;;5063632;28;19983;-73
2022/09/18 13:30:24;;;;;;;;;;;11.80;99.90;;;;;;5063875;28;19921;-73
2022/09/18 13:32:52;;;;;;;;;;;11.80;99.90;;;;;;5065259;28;19921;-73
2022/09/18 13:35:24;;;;;;;;;;;11.70;99.90;;;;;;5083381;28;20212;-73
2022/09/18 13:38:06;;;;;;;;;;;11.70;99.90;;;;;;5084228;28;19921;-73
2022/09/18 13:40:34;;;;;;;;;;;11.70;99.90;;;;;;5081415;28;19921;-72
2022/09/18 13:45:37;;;;;;;;;;;11.60;99.90;;;;;;5067898;28;19928;-67
2022/09/18 13:48:06;;;;;;;;;;;11.60;99.90;;;;;;5063843;28;19920;-75
2022/09/18 13:50:35;;;;;;;;;;;11.70;99.90;;;;;;5064307;28;19992;-70
2022/09/18 13:53:02;;;;;;;;;;;11.60;99.90;;;;;;5080801;28;20003;-70
2022/09/18 13:55:48;;;;;;;;;;;11.60;99.90;;;;;;5080133;28;20003;-70
2022/09/18 13:58:34;;;;;;;;;;;11.60;99.90;;;;;;5084060;28;19935;-69
2022/09/18 14:01:01;;;;;;;;;;;11.70;99.90;;;;;;5083880;28;19925;-71
2022/09/18 14:03:33;;;;;;;;;;;11.70;99.90;;;;;;5083553;28;20208;-69
2022/09/18 14:06:20;;;;;;;;;;;11.60;99.90;;;;;;5082646;28;19920;-71
2022/09/18 14:08:47;;;;;;;;;;;11.60;99.90;;;;;;5083640;28;19920;-70
2022/09/18 14:11:23;;;;;;;;;;;11.70;99.90;;;;;;5083726;28;19991;-69
2022/09/18 14:13:52;;;;;;;;;;;11.60;99.90;;;;;;5083787;28;19920;-70
2022/09/18 14:16:27;;;;;;;;;;;11.60;99.90;;;;;;5083241;28;19963;-70
2022/09/18 14:19:00;;;;;;;;;;;11.70;99.90;;;;;;5079469;28;19927;-70
2022/09/18 14:21:30;;;;;;;;;;;11.60;99.90;;;;;;5081503;28;19927;-70
2022/09/18 14:24:12;;;;;;;;;;;11.70;99.90;;;;;;5083805;28;19920;-70
2022/09/18 14:27:01;;;;;;;;;;;11.60;99.90;;;;;;5082789;28;19999;-70
2022/09/18 14:29:30;;;;;;;;;;;11.60;99.90;;;;;;5083478;28;19921;-71
2022/09/18 14:31:58;;;;;;;;;;;11.60;99.90;;;;;;5083773;28;20001;-70
2022/09/18 14:34:28;;;;;;;;;;;11.60;99.90;;;;;;5083662;28;19920;-71
2022/09/18 14:36:58;;;;;;;;;;;11.60;99.90;;;;;;5083100;28;19920;-71
2022/09/18 14:39:25;;;;;;;;;;;11.60;99.90;;;;;;5085895;28;19980;-72
2022/09/18 14:41:53;;;;;;;;;;;11.60;99.90;;;;;;5087675;28;19956;-71
2022/09/18 14:44:19;;;;;;;;;;;11.60;99.90;;;;;;5087306;28;19927;-71